Time;durP1;ratioP1;P1;durP2;ratioP2;P2;SDS_P1;SDS_P2;PMS_P1;PMS_P2;Temp;Humidity;BMP_temperature;BMP_pressure;BME280_temperature;BME280_humidity;BME280_pressure;Samples;Min_cycle;Max_cycle;Signal;HPM_P1;HPM_P2
2021/03/14 00:00:39;;;;;;;19.67;12.80;;;;;;;3.84;79.08;101078.92;1742709;82;20957;-77
2021/03/14 00:03:09;;;;;;;15.90;10.53;;;;;;;3.82;78.90;101074.67;1742481;82;20941;-77
2021/03/14 00:05:38;;;;;;;17.20;10.80;;;;;;;3.82;78.78;101074.67;1742678;82;20953;-78
2021/03/14 00:08:08;;;;;;;15.38;9.80;;;;;;;3.84;78.65;101078.08;1742469;82;21202;-78
2021/03/14 00:10:40;;;;;;;15.63;9.20;;;;;;;3.82;78.67;101071.63;1742479;82;21371;-78
2021/03/14 00:13:12;;;;;;;20.17;10.98;;;;;;;3.82;78.76;101071.63;1786899;79;20979;-78
2021/03/14 00:15:40;;;;;;;17.80;11.28;;;;;;;3.85;78.67;101065.08;1787307;79;21019;-78
2021/03/14 00:18:09;;;;;;;22.22;10.88;;;;;;;3.87;78.58;101058.56;1787240;79;21062;-78
2021/03/14 00:20:38;;;;;;;20.12;10.78;;;;;;;3.87;78.43;101061.16;1787284;79;21556;-77
2021/03/14 00:23:06;;;;;;;19.17;10.20;;;;;;;3.84;78.45;101066.41;1787278;80;20967;-77
2021/03/14 00:25:34;;;;;;;16.37;10.70;;;;;;;3.84;78.43;101065.95;1787341;80;21366;-76
2021/03/14 00:28:03;;;;;;;18.40;8.75;;;;;;;3.83;78.43;101060.83;1787426;80;21501;-77
2021/03/14 00:30:31;;;;;;;17.27;9.10;;;;;;;3.80;78.61;101053.98;1787411;80;21008;-78
2021/03/14 00:33:01;;;;;;;20.30;9.85;;;;;;;3.79;78.89;101059.19;1787392;79;21325;-77
2021/03/14 00:35:30;;;;;;;18.23;9.98;;;;;;;3.79;78.98;101052.70;1787393;79;21018;-77
2021/03/14 00:37:58;;;;;;;21.00;11.08;;;;;;;3.78;78.99;101050.56;1787265;80;20960;-76
2021/03/14 00:40:26;;;;;;;22.07;11.83;;;;;;;3.79;79.03;101045.77;1787356;79;21369;-77
2021/03/14 00:42:57;;;;;;;22.17;10.60;;;;;;;3.78;79.13;101049.27;1787360;80;20970;-76
2021/03/14 00:45:27;;;;;;;26.52;11.75;;;;;;;3.77;79.23;101054.03;1786749;80;21204;-76
2021/03/14 00:47:58;;;;;;;20.62;11.80;;;;;;;3.75;79.35;101055.81;1787362;79;21378;-75
2021/03/14 00:50:26;;;;;;;18.75;10.00;;;;;;;3.73;79.62;101061.48;1787131;79;20955;-74
2021/03/14 00:52:55;;;;;;;24.27;10.82;;;;;;;3.71;79.81;101065.84;1787235;80;21474;-76
2021/03/14 00:55:24;;;;;;;24.15;11.43;;;;;;;3.69;79.87;101058.13;1787398;79;20912;-75
2021/03/14 00:57:52;;;;;;;24.32;11.55;;;;;;;3.71;79.79;101060.24;1787298;80;22027;-75
2021/03/14 01:00:21;;;;;;;28.60;12.37;;;;;;;3.72;79.65;101065.82;1787321;79;20979;-74
2021/03/14 01:02:50;;;;;;;22.73;12.33;;;;;;;3.72;79.52;101064.52;1787300;80;21031;-75
2021/03/14 01:05:18;;;;;;;20.60;10.65;;;;;;;3.77;79.33;101066.16;1787241;80;21039;-76
2021/03/14 01:07:47;;;;;;;24.57;11.05;;;;;;;3.78;79.08;101067.42;1787324;80;20939;-73
2021/03/14 01:10:15;;;;;;;19.20;10.53;;;;;;;3.78;79.07;101067.42;1787361;79;21374;-74
2021/03/14 01:12:44;;;;;;;19.55;10.43;;;;;;;3.80;79.06;101069.96;1787350;80;20968;-74
2021/03/14 01:15:15;;;;;;;23.95;10.98;;;;;;;3.81;78.90;101073.83;1786235;80;21378;-74
2021/03/14 01:17:44;;;;;;;17.12;10.10;;;;;;;3.82;78.75;101064.30;1786937;79;20963;-74
2021/03/14 01:20:17;;;;;;;24.70;11.00;;;;;;;3.84;78.49;101073.73;1787432;79;21035;-74
2021/03/14 01:22:45;;;;;;;21.48;10.72;;;;;;;3.83;78.43;101077.69;1787440;80;21401;-74
2021/03/14 01:25:13;;;;;;;24.23;12.55;;;;;;;3.85;78.27;101081.09;1787241;80;21501;-76
2021/03/14 01:27:45;;;;;;;32.05;11.88;;;;;;;3.85;78.17;101082.39;1787276;79;21552;-77
2021/03/14 01:30:16;;;;;;;18.48;10.75;;;;;;;3.82;78.23;101082.45;1787142;80;20963;-78
2021/03/14 01:32:46;;;;;;;18.30;11.22;;;;;;;3.79;78.32;101084.68;1787159;79;21011;-77
2021/03/14 01:35:15;;;;;;;23.10;10.68;;;;;;;3.77;78.42;101086.45;1787237;79;21492;-77
2021/03/14 01:37:44;;;;;;;21.55;12.20;;;;;;;3.77;78.42;101084.31;1787071;80;21030;-77
2021/03/14 01:43:18;;;;;;;23.38;11.35;;;;;;;3.76;78.54;101087.36;1845030;76;22660;-77
2021/03/14 01:45:47;;;;;;;21.60;11.05;;;;;;;3.71;78.58;101085.30;1856118;77;20978;-77
2021/03/14 01:48:19;;;;;;;16.05;10.20;;;;;;;3.67;78.75;101087.14;1786653;80;22126;-76
2021/03/14 01:50:48;;;;;;;18.98;11.22;;;;;;;3.63;79.00;101084.20;1790139;80;21025;-76
2021/03/14 01:53:16;;;;;;;19.70;10.90;;;;;;;3.60;79.20;101092.48;1790246;80;21010;-77
2021/03/14 01:55:44;;;;;;;21.33;11.40;;;;;;;3.59;79.32;101093.39;1790171;80;21057;-76
2021/03/14 01:58:12;;;;;;;23.30;12.18;;;;;;;3.58;79.34;101091.25;1759691;80;20943;-77
2021/03/14 02:00:41;;;;;;;17.07;12.30;;;;;;;3.57;79.36;101087.38;1818789;78;21342;-76
2021/03/14 02:03:10;;;;;;;20.35;10.10;;;;;;;3.57;79.28;101084.34;1818813;79;21021;-77
2021/03/14 02:05:38;;;;;;;18.15;9.33;;;;;;;3.59;79.18;101086.45;1818870;79;20978;-75
2021/03/14 02:08:07;;;;;;;15.18;9.48;;;;;;;3.60;79.15;101078.22;1818696;79;21002;-77
2021/03/14 02:10:35;;;;;;;17.57;9.68;;;;;;;3.60;79.10;101082.99;1786668;80;21506;-76
2021/03/14 02:13:14;;;;;;;15.03;8.93;;;;;;;3.61;78.96;101087.72;1784950;80;21375;-76
2021/03/14 02:15:50;;;;;;;17.12;8.45;;;;;;;3.62;78.87;101089.41;1786413;79;20997;-75
2021/03/14 02:18:19;;;;;;;16.02;9.00;;;;;;;3.60;78.76;101093.36;1818770;78;21448;-75
2021/03/14 02:20:46;;;;;;;13.10;8.73;;;;;;;3.58;78.67;101087.78;1756143;80;20995;-76
2021/03/14 02:23:38;;;;;;;10.80;7.70;;;;;;;3.58;78.59;101088.66;1784744;80;21046;-76
2021/03/14 02:26:20;;;;;;;10.38;6.12;;;;;;;3.58;78.52;101095.56;1786289;80;21795;-75
2021/03/14 02:28:48;;;;;;;10.50;6.72;;;;;;;3.57;78.49;101099.89;1789842;80;21711;-76
2021/03/14 02:31:18;;;;;;;16.40;8.18;;;;;;;3.56;78.50;101102.09;1786403;79;20953;-76
2021/03/14 02:33:50;;;;;;;16.45;7.83;;;;;;;3.57;78.47;101105.53;1818564;79;21009;-77
2021/03/14 02:36:19;;;;;;;14.25;7.87;;;;;;;3.58;78.32;101108.10;1818578;78;20974;-76
2021/03/14 02:38:47;;;;;;;12.85;7.22;;;;;;;3.59;78.24;101118.87;1818682;79;21266;-77
2021/03/14 02:41:15;;;;;;;14.00;8.33;;;;;;;3.57;78.15;101122.39;1786281;80;21496;-78
2021/03/14 02:43:43;;;;;;;12.78;7.87;;;;;;;3.56;78.12;101118.95;1801486;79;21374;-77
2021/03/14 02:46:11;;;;;;;19.17;7.60;;;;;;;3.56;78.15;101119.38;1787114;79;20901;-77
2021/03/14 02:48:39;;;;;;;12.95;8.18;;;;;;;3.55;78.17;101119.83;1801712;79;21463;-77
2021/03/14 02:51:08;;;;;;;16.37;8.65;;;;;;;3.51;78.22;101116.88;1734302;79;21504;-78
2021/03/14 02:53:37;;;;;;;11.55;7.50;;;;;;;3.49;78.24;101113.05;1818841;78;21017;-75
2021/03/14 02:56:05;;;;;;;12.73;7.92;;;;;;;3.49;78.23;101119.95;1786377;79;21039;-76
2021/03/14 02:58:33;;;;;;;13.65;7.97;;;;;;;3.48;78.17;101119.11;1800812;79;20914;-76
2021/03/14 03:01:02;;;;;;;14.00;7.83;;;;;;;3.48;78.13;101114.38;1786388;79;20949;-77
2021/03/14 03:03:31;;;;;;;11.65;7.70;;;;;;;3.47;78.04;101112.23;1772562;79;21367;-77
2021/03/14 03:05:59;;;;;;;11.48;7.40;;;;;;;3.48;78.03;101107.89;1757775;79;21040;-78
2021/03/14 03:08:30;;;;;;;13.13;7.83;;;;;;;3.48;78.09;101111.78;1818660;79;21448;-77
2021/03/14 03:11:06;;;;;;;12.88;7.10;;;;;;;3.48;78.07;101115.67;1818517;78;20998;-77
2021/03/14 03:13:36;;;;;;;15.50;8.20;;;;;;;3.47;78.10;101113.98;1786370;79;21027;-76
2021/03/14 03:16:07;;;;;;;14.60;7.78;;;;;;;3.49;77.94;101116.06;1800974;79;21361;-77
2021/03/14 03:18:35;;;;;;;14.58;7.60;;;;;;;3.49;77.88;101117.36;1786275;79;21060;-76
2021/03/14 03:21:03;;;;;;;13.80;8.30;;;;;;;3.47;77.80;101110.09;1772011;79;20946;-76
2021/03/14 03:23:31;;;;;;;12.82;6.97;;;;;;;3.47;77.72;101109.64;1786284;79;20945;-76
2021/03/14 03:26:03;;;;;;;10.03;6.67;;;;;;;3.48;77.65;101102.70;1800892;79;20962;-77
2021/03/14 03:28:32;;;;;;;14.25;7.40;;;;;;;3.49;77.67;101105.69;1786388;79;21382;-78
2021/03/14 03:31:00;;;;;;;11.80;7.05;;;;;;;3.50;77.71;101100.94;1800795;79;20957;-76
2021/03/14 03:33:29;;;;;;;8.98;7.35;;;;;;;3.52;77.68;101097.86;1786297;79;20980;-78
2021/03/14 03:35:57;;;;;;;13.38;8.48;;;;;;;3.53;77.52;101090.48;1800803;79;20954;-78
2021/03/14 03:38:25;;;;;;;11.78;7.72;;;;;;;3.53;77.51;101092.66;1786328;79;20985;-76
2021/03/14 03:40:54;;;;;;;13.38;7.87;;;;;;;3.52;77.40;101090.09;1800819;79;21385;-77
2021/03/14 03:43:28;;;;;;;19.02;7.83;;;;;;;3.53;77.27;101090.06;1774970;80;20942;-75
2021/03/14 03:45:59;;;;;;;10.53;7.40;;;;;;;3.54;77.17;101093.50;1775624;80;20978;-74
2021/03/14 03:48:46;;;;;;;11.68;7.35;;;;;;;3.54;77.13;101092.20;1771966;80;20993;-76
2021/03/14 03:51:24;;;;;;;13.65;9.13;;;;;;;3.49;77.10;101083.23;1772170;81;20911;-76
2021/03/14 03:53:53;;;;;;;14.83;8.40;;;;;;;3.46;77.03;101083.28;1775664;80;21471;-76
2021/03/14 03:56:21;;;;;;;15.83;9.03;;;;;;;3.45;77.09;101082.05;1771916;79;21037;-77
2021/03/14 03:58:50;;;;;;;15.13;8.48;;;;;;;3.45;76.98;101076.86;1775574;80;21318;-76
2021/03/14 04:01:18;;;;;;;16.10;10.20;;;;;;;3.43;76.86;101078.64;1771886;79;21019;-77
2021/03/14 04:03:48;;;;;;;14.40;7.83;;;;;;;3.40;76.77;101083.88;1803673;79;21318;-77
2021/03/14 04:06:18;;;;;;;14.78;9.00;;;;;;;3.38;76.71;101083.93;1803622;79;21238;-79
2021/03/14 04:08:46;;;;;;;10.75;7.30;;;;;;;3.39;76.68;101086.07;1772021;80;21411;-76
2021/03/14 04:11:17;;;;;;;16.20;7.25;;;;;;;3.38;76.62;101080.45;1775835;80;20943;-75
2021/03/14 04:13:45;;;;;;;18.37;8.60;;;;;;;3.37;76.61;101071.84;1772169;79;21049;-76
2021/03/14 04:16:14;;;;;;;13.05;9.35;;;;;;;3.34;76.73;101070.63;1803766;79;21015;-76
2021/03/14 04:18:42;;;;;;;19.17;10.30;;;;;;;3.40;76.70;101080.86;1771955;80;21275;-78
2021/03/14 04:21:15;;;;;;;19.60;10.68;;;;;;;3.43;76.44;101073.00;1754103;80;21377;-79
2021/03/14 04:23:45;;;;;;;15.35;10.03;;;;;;;3.43;76.24;101068.27;1775848;80;20938;-79
2021/03/14 04:26:16;;;;;;;15.28;9.60;;;;;;;3.40;76.16;101073.50;1753830;80;20951;-79
2021/03/14 04:28:45;;;;;;;16.97;9.20;;;;;;;3.39;76.07;101073.95;1771975;80;21017;-77
2021/03/14 04:31:13;;;;;;;14.63;9.18;;;;;;;3.39;75.99;101072.66;1803610;79;21366;-78
2021/03/14 04:33:42;;;;;;;13.20;8.70;;;;;;;3.39;76.00;101067.92;1803618;79;20943;-78
2021/03/14 04:36:11;;;;;;;16.15;9.60;;;;;;;3.37;75.98;101070.55;1803649;79;20943;-78
2021/03/14 04:38:39;;;;;;;16.77;9.15;;;;;;;3.38;76.03;101067.08;1772016;80;21008;-76
2021/03/14 04:41:07;;;;;;;22.32;10.18;;;;;;;3.43;75.86;101063.92;1775561;80;20999;-77
2021/03/14 04:43:35;;;;;;;14.45;10.13;;;;;;;3.47;75.57;101066.86;1755688;80;21380;-76
2021/03/14 04:46:04;;;;;;;15.25;9.83;;;;;;;3.47;75.50;101064.72;1786359;80;20935;-76
2021/03/14 04:48:32;;;;;;;12.60;8.30;;;;;;;3.49;75.39;101068.09;1782695;79;20957;-77
2021/03/14 04:51:00;;;;;;;12.07;7.28;;;;;;;3.56;75.26;101072.27;1814747;78;20931;-76
2021/03/14 04:53:28;;;;;;;10.43;7.12;;;;;;;3.63;74.85;101074.28;1782849;80;21007;-78
2021/03/14 04:55:57;;;;;;;10.98;6.80;;;;;;;3.67;74.72;101073.33;1751012;80;21718;-76
2021/03/14 04:58:24;;;;;;;9.85;6.58;;;;;;;3.69;74.44;101072.81;1782726;80;21045;-77
2021/03/14 05:00:53;;;;;;;16.25;7.05;;;;;;;3.71;74.24;101074.92;1756137;80;20963;-75
2021/03/14 05:03:22;;;;;;;13.45;7.50;;;;;;;3.72;74.10;101071.01;1782829;79;21005;-77
2021/03/14 05:05:52;;;;;;;11.83;7.17;;;;;;;3.76;73.95;101073.09;1814888;79;20896;-76
2021/03/14 05:08:22;;;;;;;14.90;8.23;;;;;;;3.79;73.70;101074.75;1782568;80;21478;-77
2021/03/14 05:10:51;;;;;;;16.35;7.78;;;;;;;3.82;73.52;101071.63;1786139;80;20974;-76
2021/03/14 05:13:21;;;;;;;10.70;6.50;;;;;;;3.86;73.25;101078.44;1782619;79;20938;-77
2021/03/14 05:15:51;;;;;;;9.00;6.20;;;;;;;3.88;73.04;101074.07;1814654;78;21003;-77
2021/03/14 05:18:19;;;;;;;11.68;5.95;;;;;;;3.89;72.82;101076.22;1814752;78;20951;-77
2021/03/14 05:20:50;;;;;;;15.32;7.03;;;;;;;3.87;72.91;101077.57;1809603;78;21466;-77
2021/03/14 05:23:18;;;;;;;14.98;7.10;;;;;;;3.86;72.86;101076.30;1727840;80;21071;-78
2021/03/14 05:25:46;;;;;;;13.83;9.50;;;;;;;3.85;72.86;101069.42;1781070;80;20999;-79
2021/03/14 05:28:14;;;;;;;23.30;10.50;;;;;;;3.84;72.81;101074.19;1752766;80;21483;-76
2021/03/14 05:30:43;;;;;;;20.85;10.70;;;;;;;3.83;72.80;101078.53;1788040;80;20950;-77
2021/03/14 05:33:11;;;;;;;23.07;10.50;;;;;;;3.80;72.78;101074.73;1785604;79;21500;-77
2021/03/14 05:35:40;;;;;;;21.60;11.38;;;;;;;3.79;72.75;101073.46;1816463;78;20959;-76
2021/03/14 05:38:08;;;;;;;21.62;12.10;;;;;;;3.78;72.80;101072.61;1815176;78;20951;-79
2021/03/14 05:40:36;;;;;;;25.12;12.33;;;;;;;3.80;72.79;101076.45;1815221;79;21420;-78
2021/03/14 05:43:05;;;;;;;26.95;14.03;;;;;;;3.80;72.82;101078.63;1814297;78;21038;-78
2021/03/14 05:45:33;;;;;;;33.95;16.30;;;;;;;3.80;72.97;101072.13;1813121;78;21856;-81
2021/03/14 05:48:01;;;;;;;33.05;18.92;;;;;;;3.84;72.97;101072.44;1813112;79;20950;-78
2021/03/14 05:50:29;;;;;;;38.95;20.88;;;;;;;3.91;72.74;101071.84;1813055;78;20962;-78
2021/03/14 05:53:00;;;;;;;37.93;20.55;;;;;;;3.95;72.57;101069.58;1813113;79;20990;-78
2021/03/14 05:55:28;;;;;;;39.88;22.65;;;;;;;3.98;72.47;101066.05;1783832;78;20983;-79
2021/03/14 05:57:56;;;;;;;34.83;19.82;;;;;;;3.98;72.46;101064.75;1812922;79;21410;-79
2021/03/14 06:00:28;;;;;;;43.30;23.05;;;;;;;4.03;72.32;101067.66;1812971;79;21014;-79
2021/03/14 06:02:59;;;;;;;45.23;22.20;;;;;;;4.08;72.26;101065.78;1813088;79;21056;-80
2021/03/14 06:05:29;;;;;;;45.05;21.10;;;;;;;4.13;72.16;101074.74;1813145;79;21022;-79
2021/03/14 06:07:58;;;;;;;44.80;23.07;;;;;;;4.19;72.04;101071.15;1813276;78;20958;-79
2021/03/14 06:10:28;;;;;;;46.95;23.20;;;;;;;4.27;71.78;101064.86;1813696;79;21038;-76
2021/03/14 06:12:58;;;;;;;44.95;25.12;;;;;;;4.35;71.38;101063.34;1814117;79;21451;-77
2021/03/14 06:15:30;;;;;;;46.60;24.65;;;;;;;4.36;71.22;101066.36;1785176;79;21504;-77
2021/03/14 06:18:01;;;;;;;44.98;25.30;;;;;;;4.33;71.22;101071.63;1813013;79;20959;-78
2021/03/14 06:20:44;;;;;;;43.17;22.05;;;;;;;4.29;71.31;101069.99;1813487;78;20926;-76
2021/03/14 06:23:16;;;;;;;37.17;19.80;;;;;;;4.28;71.35;101069.15;1813776;78;22333;-77
2021/03/14 06:25:49;;;;;;;42.35;22.40;;;;;;;4.28;71.40;101067.01;1812537;79;21010;-75
2021/03/14 06:28:33;;;;;;;37.65;21.07;;;;;;;4.31;71.48;101069.51;1812959;79;21497;-77
2021/03/14 06:31:22;;;;;;;42.98;23.20;;;;;;;4.34;71.57;101078.08;1787771;79;20919;-76
2021/03/14 06:33:50;;;;;;;46.48;23.55;;;;;;;4.38;71.46;101068.90;1813213;79;20896;-76
2021/03/14 06:36:21;;;;;;;45.03;22.62;;;;;;;4.40;71.35;101071.85;1813046;79;21190;-76
2021/03/14 06:38:49;;;;;;;41.50;22.65;;;;;;;4.41;71.37;101070.98;1813048;78;20975;-75
2021/03/14 06:41:24;;;;;;;37.80;20.45;;;;;;;4.38;71.40;101070.20;1813358;79;20939;-77
2021/03/14 06:43:57;;;;;;;44.53;23.98;;;;;;;4.33;71.43;101069.02;1807196;79;20994;-77
2021/03/14 06:46:27;;;;;;;35.60;18.40;;;;;;;4.31;71.47;101079.47;1803883;79;21048;-75
2021/03/14 06:49:15;;;;;;;39.05;18.75;;;;;;;4.30;71.42;101071.27;1803174;79;22323;-74
2021/03/14 06:51:53;;;;;;;31.68;16.17;;;;;;;4.29;71.48;101076.48;1803547;79;21480;-76
2021/03/14 06:54:36;;;;;;;31.00;16.00;;;;;;;4.29;71.22;101081.26;1803659;79;20931;-74
2021/03/14 06:57:13;;;;;;;29.87;14.30;;;;;;;4.30;71.13;101076.91;1803681;79;20883;-75
2021/03/14 06:59:52;;;;;;;30.48;16.87;;;;;;;4.32;70.98;101079.86;1803671;79;20979;-76
2021/03/14 07:02:24;;;;;;;28.73;13.48;;;;;;;4.33;70.97;101080.25;1803661;79;21413;-77
2021/03/14 07:04:58;;;;;;;23.87;13.80;;;;;;;4.34;70.88;101082.43;1803573;79;20919;-77
2021/03/14 07:07:41;;;;;;;31.33;13.23;;;;;;;4.32;70.91;101075.97;1804107;79;21532;-75
2021/03/14 07:10:15;;;;;;;20.97;9.98;;;;;;;4.36;70.89;101084.09;1803646;79;21011;-77
2021/03/14 07:12:45;;;;;;;19.07;9.63;;;;;;;4.41;70.79;101077.47;1772324;80;21481;-78
2021/03/14 07:15:23;;;;;;;16.30;8.93;;;;;;;4.45;70.76;101082.14;1775576;80;22319;-79
2021/03/14 07:17:56;;;;;;;16.12;9.40;;;;;;;4.49;70.54;101087.21;1771879;80;21017;-78
2021/03/14 07:20:29;;;;;;;16.62;8.33;;;;;;;4.53;70.52;101092.70;1803697;79;21465;-79
2021/03/14 07:23:00;;;;;;;16.52;8.88;;;;;;;4.56;70.29;101091.34;1771842;80;21064;-78
2021/03/14 07:25:32;;;;;;;15.50;8.45;;;;;;;4.57;70.20;101094.78;1803652;79;21088;-77
2021/03/14 07:28:00;;;;;;;14.35;9.53;;;;;;;4.56;70.21;101101.73;1772091;80;21795;-77
2021/03/14 07:30:29;;;;;;;16.73;8.23;;;;;;;4.54;70.17;101106.11;1770413;81;20975;-75
2021/03/14 07:32:57;;;;;;;13.65;7.80;;;;;;;4.52;70.20;101107.05;1771908;80;21030;-79
2021/03/14 07:35:26;;;;;;;10.03;6.22;;;;;;;4.52;70.32;101105.75;1775392;80;21043;-76
2021/03/14 07:38:00;;;;;;;12.05;5.60;;;;;;;4.51;70.27;101105.33;1772041;79;20934;-78
2021/03/14 07:40:30;;;;;;;15.32;6.90;;;;;;;4.51;70.34;101102.73;1775476;80;21367;-77
2021/03/14 07:43:00;;;;;;;10.65;6.70;;;;;;;4.50;70.36;101104.48;1772940;79;21575;-77
2021/03/14 07:45:30;;;;;;;12.20;7.20;;;;;;;4.51;70.32;101102.73;1818442;78;21022;-79
2021/03/14 07:48:00;;;;;;;12.70;8.45;;;;;;;4.51;70.27;101104.03;1786199;80;21011;-78
2021/03/14 07:50:39;;;;;;;14.38;8.00;;;;;;;4.53;70.27;101103.09;1800852;79;20981;-77
2021/03/14 07:53:09;;;;;;;13.03;7.37;;;;;;;4.53;70.29;101100.49;1786247;80;21255;-78
2021/03/14 07:55:37;;;;;;;15.10;10.05;;;;;;;4.52;70.29;101096.20;1818366;79;21006;-80
2021/03/14 07:58:07;;;;;;;15.30;8.18;;;;;;;4.52;70.34;101092.77;1818446;78;21006;-80
2021/03/14 08:00:40;;;;;;;15.50;8.13;;;;;;;4.54;70.34;101098.31;1817834;79;21042;-81
2021/03/14 08:03:09;;;;;;;15.15;7.47;;;;;;;4.59;70.17;101096.05;1786251;79;20996;-78
2021/03/14 08:05:43;;;;;;;11.80;7.70;;;;;;;4.65;69.98;101095.88;1784529;80;21366;-78
2021/03/14 08:08:28;;;;;;;13.30;8.53;;;;;;;4.65;69.80;101099.33;1786370;80;21032;-76
2021/03/14 08:10:56;;;;;;;14.55;9.85;;;;;;;4.69;69.76;101094.87;1800827;79;21013;-78
2021/03/14 08:13:34;;;;;;;16.05;8.55;;;;;;;4.70;69.56;101088.80;1786147;79;21040;-79
2021/03/14 08:16:06;;;;;;;11.63;7.20;;;;;;;4.72;69.52;101093.52;1818347;79;20895;-80
2021/03/14 08:18:39;;;;;;;20.95;8.83;;;;;;;4.73;69.37;101093.90;1818544;78;22286;-77
2021/03/14 08:21:31;;;;;;;14.83;8.28;;;;;;;4.74;69.19;101083.93;1786155;80;20952;-79
2021/03/14 08:24:02;;;;;;;16.85;8.68;;;;;;;4.73;69.12;101089.55;1798000;79;20926;-80
2021/03/14 08:26:36;;;;;;;11.70;7.30;;;;;;;4.72;69.09;101086.56;1786260;80;20921;-80
2021/03/14 08:29:14;;;;;;;18.02;8.18;;;;;;;4.75;69.14;101085.16;1800766;79;21058;-80
2021/03/14 08:31:54;;;;;;;16.87;8.60;;;;;;;4.75;69.07;101086.46;1786126;80;20933;-79
2021/03/14 08:34:33;;;;;;;16.12;9.60;;;;;;;4.80;69.06;101086.78;1818499;78;20958;-83
2021/03/14 08:37:25;;;;;;;15.13;9.78;;;;;;;4.84;69.03;101078.86;1788130;80;21382;-81
2021/03/14 08:40:04;;;;;;;15.00;9.60;;;;;;;4.91;69.09;101071.73;1784610;80;20947;-78
2021/03/14 08:42:54;;;;;;;18.42;9.43;;;;;;;4.98;68.74;101063.73;1786316;80;20998;-76
2021/03/14 08:45:26;;;;;;;14.70;8.35;;;;;;;5.04;68.66;101067.03;1774554;80;21384;-74
2021/03/14 08:48:05;;;;;;;15.32;9.35;;;;;;;5.09;68.48;101065.14;1772217;79;20950;-77
2021/03/14 08:50:36;;;;;;;12.95;8.38;;;;;;;5.13;68.37;101074.55;1775414;80;20995;-79
2021/03/14 08:53:08;;;;;;;15.03;7.87;;;;;;;5.18;68.34;101072.23;1750264;81;21005;-77
2021/03/14 08:55:45;;;;;;;14.58;8.53;;;;;;;5.27;68.26;101079.33;1775565;80;20907;-77
2021/03/14 08:58:15;;;;;;;16.65;8.60;;;;;;;5.34;68.02;101083.02;1771735;79;21321;-78
2021/03/14 09:01:08;;;;;;;14.93;8.75;;;;;;;5.45;67.92;101082.68;1803606;79;21035;-77
2021/03/14 09:03:44;;;;;;;17.48;9.23;;;;;;;5.67;67.42;101082.86;1771819;80;21032;-78
2021/03/14 09:06:29;;;;;;;11.60;8.90;;;;;;;6.05;66.95;101078.59;1775280;80;21022;-77
2021/03/14 09:09:10;;;;;;;17.95;10.08;;;;;;;6.40;65.98;101085.20;1771464;80;20960;-78
2021/03/14 09:11:55;;;;;;;17.25;9.40;;;;;;;6.68;65.21;101079.86;1803264;79;21358;-78
2021/03/14 09:14:36;;;;;;;12.80;8.88;;;;;;;6.93;64.56;101085.01;1771560;80;21052;-76
2021/03/14 09:17:19;;;;;;;14.85;7.67;;;;;;;7.38;63.25;101078.09;1770237;81;20947;-77
2021/03/14 09:19:55;;;;;;;16.97;10.38;;;;;;;7.98;62.28;101077.84;1771638;80;20991;-78
2021/03/14 09:22:28;;;;;;;15.70;10.55;;;;;;;8.55;60.40;101068.88;1775410;80;20901;-77
2021/03/14 09:25:05;;;;;;;15.88;7.17;;;;;;;8.91;58.75;101073.37;1801625;79;21377;-79
2021/03/14 09:27:37;;;;;;;12.00;6.90;;;;;;;9.03;58.49;101075.44;1771824;80;21020;-79
2021/03/14 09:30:13;;;;;;;10.30;6.40;;;;;;;9.01;58.52;101073.81;1770126;81;21034;-79
2021/03/14 09:32:50;;;;;;;13.00;9.88;;;;;;;8.95;58.08;101068.86;1771727;80;20947;-80
2021/03/14 09:35:26;;;;;;;11.18;7.65;;;;;;;8.81;58.25;101064.27;1770100;80;21485;-81
2021/03/14 09:37:59;;;;;;;10.80;6.87;;;;;;;8.65;58.89;101070.19;1771899;80;24064;-82
2021/03/14 09:40:48;;;;;;;14.60;9.23;;;;;;;8.62;59.33;101069.45;1775451;80;21547;-82
2021/03/14 09:43:26;;;;;;;16.67;10.48;;;;;;;8.61;59.39;101072.54;1771846;79;21033;-84
2021/03/14 09:46:12;;;;;;;12.82;7.83;;;;;;;8.54;59.49;101068.94;1750344;82;21377;-82
2021/03/14 09:48:46;;;;;;;15.70;8.13;;;;;;;8.44;59.61;101053.67;1815701;79;21041;-82
2021/03/14 09:51:16;;;;;;;9.43;6.72;;;;;;;8.34;59.83;101049.75;1717707;82;21381;-83
2021/03/14 09:53:45;;;;;;;13.65;6.87;;;;;;;8.24;60.23;101045.83;1696111;81;21051;-78
2021/03/14 09:56:15;;;;;;;10.95;7.12;;;;;;;8.18;60.44;101030.41;1815963;79;20930;-76
2021/03/14 09:59:03;;;;;;;9.80;6.35;;;;;;;8.23;60.45;101035.00;1816314;79;20934;-78
2021/03/14 10:01:36;;;;;;;9.33;6.70;;;;;;;8.37;60.57;101040.45;1816082;79;21352;-80
2021/03/14 10:04:05;;;;;;;13.78;6.85;;;;;;;8.47;60.21;101033.95;1746893;81;22444;-80
2021/03/14 10:06:39;;;;;;;9.33;6.97;;;;;;;8.57;60.33;101024.38;1746220;82;21520;-77
2021/03/14 10:09:23;;;;;;;11.15;7.12;;;;;;;8.56;59.50;101024.85;1816711;79;20994;-78
2021/03/14 10:11:55;;;;;;;11.33;6.87;;;;;;;8.52;59.81;101026.37;1746777;82;20946;-76
2021/03/14 10:14:25;;;;;;;16.55;8.93;;;;;;;8.46;59.96;101023.55;1742183;81;20909;-79
2021/03/14 10:16:53;;;;;;;10.45;6.97;;;;;;;8.44;60.14;101022.77;1816593;79;21425;-79
2021/03/14 10:19:21;;;;;;;14.23;7.58;;;;;;;8.49;60.33;101022.09;1816595;79;20946;-79
2021/03/14 10:21:49;;;;;;;12.93;6.78;;;;;;;8.54;60.41;101014.05;1717940;81;20971;-79
2021/03/14 10:24:31;;;;;;;10.93;7.87;;;;;;;8.57;60.10;101021.77;1813402;78;21014;-77
2021/03/14 10:27:04;;;;;;;11.63;7.23;;;;;;;8.58;60.33;101017.79;1816575;79;20942;-77
2021/03/14 10:29:58;;;;;;;20.88;11.90;;;;;;;8.59;59.97;101011.62;1745728;81;22278;-78
2021/03/14 10:32:30;;;;;;;14.40;7.87;;;;;;;8.55;60.16;101007.92;1752151;81;21005;-79
2021/03/14 10:35:06;;;;;;;11.05;6.70;;;;;;;8.47;60.11;101005.63;1746978;81;20959;-78
2021/03/14 10:37:35;;;;;;;11.40;7.67;;;;;;;8.35;60.47;100995.72;1753875;81;20942;-73
2021/03/14 10:40:10;;;;;;;10.53;7.58;;;;;;;8.24;60.89;101006.64;1746648;82;20947;-73
2021/03/14 10:42:52;;;;;;;10.20;7.80;;;;;;;8.13;60.97;101000.57;1745515;82;21299;-72
2021/03/14 10:45:23;;;;;;;12.55;8.35;;;;;;;8.07;61.32;100999.53;1832312;77;20911;-71
2021/03/14 10:48:02;;;;;;;19.20;12.45;;;;;;;8.04;61.33;101000.98;1771305;80;20913;-72
2021/03/14 10:50:34;;;;;;;10.95;8.50;;;;;;;8.07;61.64;100989.08;1775474;80;20951;-75
2021/03/14 10:53:16;;;;;;;12.00;8.35;;;;;;;8.10;61.09;100993.72;1767154;79;20919;-76
2021/03/14 10:56:15;;;;;;;10.48;7.33;;;;;;;8.15;61.25;100987.45;1888263;76;22850;-77
2021/03/14 10:58:44;;;;;;;12.15;7.87;;;;;;;8.17;61.07;100985.63;1781888;80;21322;-78
2021/03/14 11:01:27;;;;;;;8.60;6.58;;;;;;;8.21;60.81;100986.73;1851573;77;21665;-77
2021/03/14 11:04:06;;;;;;;8.38;6.22;;;;;;;8.21;60.52;100981.50;1785116;80;20923;-77
2021/03/14 11:06:39;;;;;;;11.70;7.85;;;;;;;8.18;60.53;100978.16;1785337;80;20959;-78
2021/03/14 11:09:10;;;;;;;8.78;7.28;;;;;;;8.18;60.61;100968.59;1853943;77;21248;-76
2021/03/14 11:11:46;;;;;;;14.23;6.78;;;;;;;8.23;60.67;100973.60;1854544;77;20997;-78
2021/03/14 11:14:37;;;;;;;13.68;7.80;;;;;;;8.21;60.26;100963.21;1817518;79;21302;-80
2021/03/14 11:17:18;;;;;;;12.03;6.30;;;;;;;8.19;60.63;100958.52;1808081;79;20930;-78
2021/03/14 11:20:06;;;;;;;10.40;6.17;;;;;;;8.25;60.45;100956.09;1786046;80;21365;-79
2021/03/14 11:22:36;;;;;;;12.35;6.60;;;;;;;8.24;60.30;100957.00;1817071;79;21453;-80
2021/03/14 11:25:06;;;;;;;14.20;7.85;;;;;;;8.23;60.30;100954.02;1855130;77;20911;-80
2021/03/14 11:27:35;;;;;;;12.82;7.75;;;;;;;8.23;60.49;100952.70;1855194;77;21358;-83
2021/03/14 11:30:05;;;;;;;11.35;7.85;;;;;;;8.27;60.42;100949.01;1785279;80;21001;-80
2021/03/14 11:32:34;;;;;;;8.65;6.47;;;;;;;8.33;60.30;100951.35;1763216;80;20955;-80
2021/03/14 11:35:09;;;;;;;11.68;7.58;;;;;;;8.40;60.17;100951.48;1825162;77;21000;-80
2021/03/14 11:37:40;;;;;;;10.55;7.15;;;;;;;8.44;59.70;100951.74;1754692;80;20943;-79
2021/03/14 11:40:16;;;;;;;12.25;6.80;;;;;;;8.41;59.53;100944.52;1814299;79;22982;-81
2021/03/14 11:42:47;;;;;;;12.88;7.67;;;;;;;8.37;59.81;100942.46;1784448;80;20957;-78
2021/03/14 11:45:26;;;;;;;10.55;7.15;;;;;;;8.34;60.13;100944.36;1816782;79;21321;-81
2021/03/14 11:47:54;;;;;;;12.40;8.75;;;;;;;8.34;60.14;100943.05;1817384;79;20923;-73